createdAt,value
2018-08-06T00:00:52.235Z,34.70
2018-08-06T00:02:09.100Z,34.70
2018-08-06T00:03:25.804Z,34.90
2018-08-06T00:04:43.444Z,34.90
2018-08-06T00:06:00.619Z,34.80
2018-08-06T00:07:17.208Z,34.80
2018-08-06T00:08:34.865Z,34.80
2018-08-06T00:09:51.448Z,34.90
2018-08-06T00:11:08.229Z,34.70
2018-08-06T00:12:25.179Z,34.90
2018-08-06T00:13:42.056Z,34.90
2018-08-06T00:14:58.844Z,35.40
2018-08-06T00:16:15.815Z,34.60
2018-08-06T00:17:33.451Z,34.80
2018-08-06T00:18:50.276Z,34.70
2018-08-06T00:20:08.328Z,34.70
2018-08-06T00:21:24.841Z,34.70
2018-08-06T00:22:42.116Z,34.60
2018-08-06T00:23:59.288Z,34.60
2018-08-06T00:25:17.156Z,34.60
2018-08-06T00:26:34.461Z,34.50
2018-08-06T00:27:51.192Z,34.60
2018-08-06T00:29:08.118Z,34.60
2018-08-06T00:30:24.899Z,34.60
2018-08-06T00:31:41.636Z,34.60
2018-08-06T00:32:58.720Z,34.60
2018-08-06T00:34:15.672Z,34.60
2018-08-06T00:35:33.292Z,34.70
2018-08-06T00:36:50.084Z,34.70
2018-08-06T00:38:07.005Z,34.50
2018-08-06T00:39:23.884Z,34.70
2018-08-06T00:40:40.684Z,34.60
2018-08-06T00:41:57.593Z,34.60
2018-08-06T00:43:14.451Z,34.50
2018-08-06T00:44:31.412Z,34.60
2018-08-06T00:45:48.084Z,34.60
2018-08-06T00:47:04.941Z,34.70
2018-08-06T00:48:21.563Z,34.60
2018-08-06T00:49:38.320Z,34.50
2018-08-06T00:50:55.079Z,34.60
2018-08-06T00:52:11.999Z,34.60
2018-08-06T00:53:28.885Z,34.50
2018-08-06T00:54:45.693Z,34.50
2018-08-06T00:56:02.636Z,34.70
2018-08-06T00:57:19.304Z,34.60
2018-08-06T00:58:36.364Z,34.50
2018-08-06T00:59:53.316Z,34.90
2018-08-06T01:01:10.082Z,34.60
2018-08-06T01:03:43.559Z,35.30
2018-08-06T01:05:00.515Z,34.70
2018-08-06T01:06:17.242Z,34.60
2018-08-06T01:07:34.077Z,34.60
2018-08-06T01:08:50.709Z,34.60
2018-08-06T01:10:09.455Z,34.60
2018-08-06T01:11:26.530Z,34.70
2018-08-06T01:12:43.330Z,34.60
2018-08-06T01:14:00.182Z,34.70
2018-08-06T01:15:17.856Z,34.60
2018-08-06T01:16:34.496Z,34.60
2018-08-06T01:17:51.312Z,34.60
2018-08-06T01:19:08.168Z,34.60
2018-08-06T01:20:24.818Z,34.60
2018-08-06T01:22:58.600Z,34.60
2018-08-06T01:24:15.415Z,34.60
2018-08-06T01:25:32.521Z,34.50
2018-08-06T01:26:49.581Z,34.60
2018-08-06T01:28:06.282Z,34.60
2018-08-06T01:29:23.216Z,34.60
2018-08-06T01:30:40.015Z,34.50
2018-08-06T01:31:56.701Z,34.60
2018-08-06T01:33:13.592Z,34.60
2018-08-06T01:34:30.214Z,34.60
2018-08-06T01:35:47.244Z,34.60
2018-08-06T01:37:04.008Z,34.60
2018-08-06T01:38:20.800Z,34.50
2018-08-06T01:39:38.029Z,34.50
2018-08-06T01:40:54.825Z,34.80
2018-08-06T01:42:11.685Z,34.60
2018-08-06T01:43:28.636Z,34.60
2018-08-06T01:44:45.380Z,34.60
2018-08-06T01:46:02.132Z,35.20
2018-08-06T01:47:19.205Z,34.60
2018-08-06T01:48:36.215Z,34.00
2018-08-06T01:49:53.160Z,34.60
2018-08-06T01:51:10.152Z,34.60
2018-08-06T01:52:27.059Z,34.70
2018-08-06T01:53:43.869Z,34.60
2018-08-06T01:55:00.931Z,34.70
2018-08-06T01:56:17.800Z,35.40
2018-08-06T01:57:35.085Z,34.70
2018-08-06T01:58:51.873Z,34.70
2018-08-06T02:00:11.719Z,34.70
2018-08-06T02:01:28.365Z,34.70
2018-08-06T02:02:45.024Z,34.60
2018-08-06T02:04:01.950Z,34.70
2018-08-06T02:05:19.524Z,34.70
2018-08-06T02:06:37.276Z,34.70
2018-08-06T02:07:53.934Z,34.70
2018-08-06T02:09:10.477Z,34.80
2018-08-06T02:10:27.445Z,34.80
2018-08-06T02:11:44.016Z,34.70
2018-08-06T02:13:01.185Z,34.70
2018-08-06T02:15:35.187Z,35.20
2018-08-06T02:16:52.236Z,35.10
2018-08-06T02:18:09.056Z,34.70
2018-08-06T02:19:26.109Z,34.90
2018-08-06T02:20:43.413Z,34.60
2018-08-06T02:22:00.427Z,34.80
2018-08-06T02:23:17.060Z,34.70
2018-08-06T02:24:34.121Z,34.70
2018-08-06T02:25:50.893Z,34.90
2018-08-06T02:27:07.692Z,35.40
2018-08-06T02:28:24.696Z,34.70
2018-08-06T02:29:41.483Z,34.70
2018-08-06T02:30:58.239Z,34.80
2018-08-06T02:32:15.445Z,34.80
2018-08-06T02:33:31.946Z,34.70
2018-08-06T02:34:48.845Z,34.70
2018-08-06T02:36:05.848Z,34.70
2018-08-06T02:37:22.820Z,34.80
2018-08-06T02:38:39.536Z,34.70
2018-08-06T02:39:56.552Z,34.80
2018-08-06T02:41:13.260Z,34.70
2018-08-06T02:42:30.112Z,34.70
2018-08-06T02:43:46.680Z,34.70
2018-08-06T02:45:03.644Z,34.70
2018-08-06T02:46:20.514Z,34.80
2018-08-06T02:47:37.668Z,34.70
2018-08-06T02:48:54.157Z,34.70
2018-08-06T02:50:11.868Z,34.70
2018-08-06T02:51:28.988Z,34.70
2018-08-06T02:52:45.714Z,34.70
2018-08-06T02:54:02.713Z,34.70
2018-08-06T02:55:19.600Z,34.70
2018-08-06T02:56:36.491Z,34.80
2018-08-06T02:57:53.364Z,34.70
2018-08-06T02:59:10.329Z,34.80
2018-08-06T03:00:27.577Z,34.80
2018-08-06T03:01:44.201Z,34.80
2018-08-06T03:03:01.257Z,34.70
2018-08-06T03:04:17.833Z,34.80
2018-08-06T03:05:34.744Z,34.80
2018-08-06T03:06:51.269Z,34.80
2018-08-06T03:08:08.152Z,34.80
2018-08-06T03:09:24.817Z,34.80
2018-08-06T03:10:41.720Z,35.00
2018-08-06T03:11:58.619Z,34.80
2018-08-06T03:13:15.735Z,34.80
2018-08-06T03:14:32.423Z,34.80
2018-08-06T03:15:49.060Z,34.90
2018-08-06T03:17:05.909Z,35.00
2018-08-06T03:18:23.387Z,34.90
2018-08-06T03:19:40.405Z,34.90
2018-08-06T03:20:57.121Z,35.50
2018-08-06T03:22:13.929Z,35.00
2018-08-06T03:23:30.891Z,35.40
2018-08-06T03:24:47.540Z,34.90
2018-08-06T03:26:04.539Z,34.80
2018-08-06T03:28:37.996Z,35.50
2018-08-06T03:29:54.689Z,34.90
2018-08-06T03:31:11.561Z,34.90
2018-08-06T03:32:28.781Z,34.90
2018-08-06T03:33:45.424Z,34.90
2018-08-06T03:35:02.285Z,34.90
2018-08-06T03:36:19.158Z,34.90
2018-08-06T03:37:36.544Z,34.90
2018-08-06T03:38:53.963Z,34.90
2018-08-06T03:40:11.298Z,34.90
2018-08-06T03:41:29.016Z,34.90
2018-08-06T03:42:46.692Z,34.90
2018-08-06T03:44:03.837Z,34.90
2018-08-06T03:45:21.328Z,35.00
2018-08-06T03:46:38.297Z,34.90
2018-08-06T03:47:55.261Z,35.00
2018-08-06T03:49:12.315Z,35.00
2018-08-06T03:50:28.860Z,35.00
2018-08-06T03:51:45.835Z,35.00
2018-08-06T03:53:02.666Z,35.00
2018-08-06T03:55:35.968Z,35.20
2018-08-06T03:56:53.147Z,35.00
2018-08-06T03:58:09.826Z,35.00
2018-08-06T03:59:26.429Z,35.00
2018-08-06T04:00:43.469Z,35.00
2018-08-06T04:02:00.302Z,35.00
2018-08-06T04:03:17.234Z,35.10
2018-08-06T04:04:33.970Z,35.00
2018-08-06T04:05:50.998Z,35.10
2018-08-06T04:07:07.967Z,35.00
2018-08-06T04:08:24.881Z,35.00
2018-08-06T04:09:41.472Z,35.00
2018-08-06T04:10:58.128Z,35.00
2018-08-06T04:12:15.268Z,35.00
2018-08-06T04:13:32.063Z,35.10
2018-08-06T04:14:48.981Z,35.10
2018-08-06T04:16:05.996Z,35.00
2018-08-06T04:17:22.796Z,35.00
2018-08-06T04:18:39.612Z,35.10
2018-08-06T04:19:56.704Z,35.10
2018-08-06T04:21:13.345Z,35.10
2018-08-06T04:22:30.262Z,35.80
2018-08-06T04:23:47.517Z,35.10
2018-08-06T04:25:04.477Z,35.10
2018-08-06T04:26:20.997Z,35.10
2018-08-06T04:27:38.312Z,35.10
2018-08-06T04:28:55.780Z,35.10
2018-08-06T04:30:14.904Z,35.20
2018-08-06T04:31:32.300Z,35.10
2018-08-06T04:32:49.196Z,35.20
2018-08-06T04:34:06.125Z,35.10
2018-08-06T04:35:22.864Z,35.10
2018-08-06T04:36:39.688Z,35.30
2018-08-06T04:37:56.512Z,35.10
2018-08-06T04:39:13.350Z,35.20
2018-08-06T04:40:30.320Z,35.30
2018-08-06T04:41:46.907Z,35.10
2018-08-06T04:43:03.574Z,35.20
2018-08-06T04:44:20.301Z,35.20
2018-08-06T04:45:36.932Z,35.20
2018-08-06T04:46:53.913Z,35.10
2018-08-06T04:48:10.680Z,35.10
2018-08-06T04:49:27.752Z,35.20
2018-08-06T04:50:44.826Z,35.20
2018-08-06T04:52:01.764Z,35.30
2018-08-06T04:53:18.556Z,35.90
2018-08-06T04:54:35.220Z,35.20
2018-08-06T04:55:51.890Z,35.30
2018-08-06T04:57:08.812Z,35.20
2018-08-06T04:58:25.457Z,36.00
2018-08-06T04:59:42.412Z,35.30
2018-08-06T05:00:59.298Z,35.30
2018-08-06T05:02:16.340Z,35.30
2018-08-06T05:03:33.141Z,35.30
2018-08-06T05:04:50.042Z,36.00
2018-08-06T05:06:07.534Z,35.30
2018-08-06T05:07:24.161Z,35.40
2018-08-06T05:08:41.036Z,35.40
2018-08-06T05:09:57.816Z,35.40
2018-08-06T05:11:14.788Z,35.60
2018-08-06T05:12:32.184Z,35.40
2018-08-06T05:13:48.745Z,35.50
2018-08-06T05:15:06.136Z,35.50
2018-08-06T05:16:22.683Z,35.40
2018-08-06T05:17:39.681Z,35.50
2018-08-06T05:18:56.657Z,35.60
2018-08-06T05:20:13.362Z,35.50
2018-08-06T05:21:30.193Z,35.60
2018-08-06T05:22:47.036Z,35.60
2018-08-06T05:24:03.991Z,35.60
2018-08-06T05:25:20.651Z,35.60
2018-08-06T05:26:37.264Z,35.60
2018-08-06T05:27:54.048Z,35.60
2018-08-06T05:29:10.925Z,35.60
2018-08-06T05:30:27.939Z,35.60
2018-08-06T05:31:44.789Z,35.70
2018-08-06T05:33:01.333Z,35.70
2018-08-06T05:34:18.241Z,35.70
2018-08-06T05:35:34.865Z,35.70
2018-08-06T05:36:51.804Z,35.70
2018-08-06T05:38:08.640Z,35.90
2018-08-06T05:39:25.315Z,35.80
2018-08-06T05:40:42.293Z,35.80
2018-08-06T05:41:59.199Z,35.80
2018-08-06T05:43:15.974Z,36.60
2018-08-06T05:44:32.732Z,35.80
2018-08-06T05:45:49.601Z,35.80
2018-08-06T05:47:06.255Z,35.80
2018-08-06T05:48:22.982Z,35.80
2018-08-06T05:49:39.668Z,35.80
2018-08-06T05:50:56.590Z,35.80
2018-08-06T05:52:13.208Z,36.50
2018-08-06T05:53:30.074Z,35.80
2018-08-06T05:54:47.080Z,35.90
2018-08-06T05:56:04.983Z,36.50
2018-08-06T05:57:22.436Z,35.90
2018-08-06T05:58:39.938Z,35.90
2018-08-06T05:59:56.984Z,35.80
2018-08-06T06:01:13.739Z,35.80
2018-08-06T06:02:30.509Z,36.60
2018-08-06T06:03:46.913Z,35.90
2018-08-06T06:05:03.852Z,35.90
2018-08-06T06:06:20.569Z,36.00
2018-08-06T06:07:37.651Z,36.00
2018-08-06T06:08:54.238Z,36.00
2018-08-06T06:10:12.702Z,36.00
2018-08-06T06:11:29.938Z,36.00
2018-08-06T06:12:46.448Z,36.00
2018-08-06T06:14:03.484Z,36.00
2018-08-06T06:15:20.974Z,36.00
2018-08-06T06:16:38.048Z,36.00
2018-08-06T06:17:54.843Z,36.60
2018-08-06T06:19:11.492Z,36.00
2018-08-06T06:20:28.364Z,36.10
2018-08-06T06:21:44.983Z,36.00
2018-08-06T06:23:02.264Z,36.00
2018-08-06T06:24:18.770Z,36.00
2018-08-06T06:25:35.633Z,36.00
2018-08-06T06:26:52.337Z,36.00
2018-08-06T06:28:09.165Z,36.20
2018-08-06T06:29:26.403Z,36.00
2018-08-06T06:30:43.045Z,36.00
2018-08-06T06:32:00.038Z,36.10
2018-08-06T06:33:17.036Z,36.10
2018-08-06T06:34:34.098Z,36.10
2018-08-06T06:35:50.922Z,36.10
2018-08-06T06:37:07.784Z,36.10
2018-08-06T06:38:24.825Z,36.10
2018-08-06T06:39:42.420Z,36.10
2018-08-06T06:40:58.952Z,36.90
2018-08-06T06:42:15.953Z,36.20
2018-08-06T06:43:32.772Z,36.20
2018-08-06T06:44:49.681Z,36.20
2018-08-06T06:47:23.051Z,36.20
2018-08-06T06:48:40.001Z,36.20
2018-08-06T06:49:56.877Z,36.10
2018-08-06T06:51:13.974Z,36.20
2018-08-06T06:52:30.412Z,36.30
2018-08-06T06:53:47.504Z,36.30
2018-08-06T06:55:05.800Z,36.30
2018-08-06T06:56:23.076Z,36.30
2018-08-06T06:57:40.035Z,36.30
2018-08-06T06:58:57.033Z,36.90
2018-08-06T07:00:13.933Z,36.40
2018-08-06T07:01:30.617Z,36.40
2018-08-06T07:02:47.429Z,36.40
2018-08-06T07:04:04.300Z,37.10
2018-08-06T07:05:21.248Z,36.40
2018-08-06T07:06:38.213Z,36.50
2018-08-06T07:07:55.296Z,36.50
2018-08-06T07:09:12.877Z,37.00
2018-08-06T07:10:29.792Z,36.50
2018-08-06T07:11:46.806Z,37.30
2018-08-06T07:13:03.428Z,36.60
2018-08-06T07:14:20.281Z,36.70
2018-08-06T07:15:37.092Z,37.40
2018-08-06T07:16:53.853Z,37.40
2018-08-06T07:18:10.791Z,36.70
2018-08-06T07:19:27.321Z,36.80
2018-08-06T07:20:44.361Z,36.80
2018-08-06T07:22:01.245Z,36.70
2018-08-06T07:23:17.936Z,36.70
2018-08-06T07:24:35.001Z,36.80
2018-08-06T07:25:51.733Z,36.80
2018-08-06T07:27:08.528Z,36.80
2018-08-06T07:28:25.089Z,36.80
2018-08-06T07:29:41.804Z,36.90
2018-08-06T07:30:58.636Z,36.90
2018-08-06T07:32:15.386Z,36.90
2018-08-06T07:33:32.148Z,36.90
2018-08-06T07:34:49.009Z,36.90
2018-08-06T07:36:05.792Z,37.30
2018-08-06T07:37:22.712Z,37.00
2018-08-06T07:38:40.013Z,37.00
2018-08-06T07:39:56.803Z,37.00
2018-08-06T07:41:13.332Z,37.00
2018-08-06T07:42:30.225Z,37.00
2018-08-06T07:43:47.504Z,37.10
2018-08-06T07:45:05.945Z,37.10
2018-08-06T07:46:23.062Z,37.10
2018-08-06T07:47:40.048Z,37.10
2018-08-06T07:48:56.960Z,37.20
2018-08-06T07:50:15.523Z,37.20
2018-08-06T07:51:32.557Z,37.20
2018-08-06T07:52:49.728Z,37.20
2018-08-06T07:54:06.508Z,37.90
2018-08-06T07:55:23.192Z,37.30
2018-08-06T07:56:40.005Z,37.30
2018-08-06T07:57:57.122Z,37.30
2018-08-06T07:59:14.546Z,37.30
2018-08-06T08:00:31.443Z,37.30
2018-08-06T08:01:48.364Z,37.30
2018-08-06T08:03:05.113Z,37.40
2018-08-06T08:04:22.162Z,37.30
2018-08-06T08:05:39.635Z,37.40
2018-08-06T08:06:56.576Z,37.40
2018-08-06T08:08:13.196Z,37.40
2018-08-06T08:09:30.043Z,37.50
2018-08-06T08:10:46.980Z,37.50
2018-08-06T08:12:03.744Z,37.60
2018-08-06T08:13:21.290Z,38.20
2018-08-06T08:14:38.207Z,38.20
2018-08-06T08:15:55.071Z,37.60
2018-08-06T08:17:11.985Z,37.60
2018-08-06T08:18:28.921Z,37.60
2018-08-06T08:19:45.791Z,37.60
2018-08-06T08:21:02.721Z,37.60
2018-08-06T08:22:20.425Z,37.60
2018-08-06T08:23:37.242Z,37.60
2018-08-06T08:24:54.884Z,37.60
2018-08-06T08:26:11.664Z,37.60
2018-08-06T08:27:28.372Z,37.60
2018-08-06T08:28:45.405Z,37.70
2018-08-06T08:30:02.196Z,38.40
2018-08-06T08:31:19.220Z,37.80
2018-08-06T08:32:36.366Z,37.80
2018-08-06T08:35:10.779Z,37.80
2018-08-06T08:36:27.917Z,37.90
2018-08-06T08:37:45.477Z,37.90
2018-08-06T08:39:02.443Z,37.90
2018-08-06T08:41:36.936Z,38.00
2018-08-06T08:42:53.546Z,38.00
2018-08-06T08:44:10.200Z,38.00
2018-08-06T08:45:27.154Z,38.00
2018-08-06T08:46:44.025Z,38.00
2018-08-06T08:48:01.144Z,38.00
2018-08-06T08:49:18.106Z,38.10
2018-08-06T08:50:35.052Z,38.10
2018-08-06T08:51:51.688Z,38.10
2018-08-06T08:53:08.392Z,38.10
2018-08-06T08:54:25.151Z,37.60
2018-08-06T08:55:42.017Z,38.20
2018-08-06T08:56:58.960Z,38.20
2018-08-06T08:58:15.545Z,38.30
2018-08-06T08:59:33.257Z,38.20
2018-08-06T09:00:50.708Z,38.30
2018-08-06T09:02:07.815Z,38.20
2018-08-06T09:03:24.376Z,38.30
2018-08-06T09:04:41.289Z,38.30
2018-08-06T09:05:57.957Z,38.30
2018-08-06T09:07:15.123Z,38.30
2018-08-06T09:08:31.909Z,39.00
2018-08-06T09:09:49.020Z,38.30
2018-08-06T09:11:06.608Z,38.40
2018-08-06T09:12:23.172Z,38.40
2018-08-06T09:13:40.000Z,38.40
2018-08-06T09:14:56.808Z,38.40
2018-08-06T09:16:13.748Z,38.40
2018-08-06T09:17:30.765Z,38.50
2018-08-06T09:18:47.732Z,38.50
2018-08-06T09:20:04.830Z,38.40
2018-08-06T09:21:22.047Z,38.50
2018-08-06T09:22:39.785Z,39.20
2018-08-06T09:23:56.988Z,38.50
2018-08-06T09:25:14.193Z,38.50
2018-08-06T09:26:31.420Z,38.60
2018-08-06T09:27:49.432Z,38.70
2018-08-06T09:29:06.094Z,38.60
2018-08-06T09:30:24.744Z,38.70
2018-08-06T09:31:41.499Z,38.70
2018-08-06T09:32:58.583Z,38.70
2018-08-06T09:34:15.463Z,39.20
2018-08-06T09:35:32.296Z,38.70
2018-08-06T09:36:48.981Z,38.70
2018-08-06T09:38:06.226Z,38.80
2018-08-06T09:39:24.112Z,38.70
2018-08-06T09:40:40.945Z,38.80
2018-08-06T09:41:58.421Z,38.80
2018-08-06T09:43:15.025Z,38.80
2018-08-06T09:44:31.938Z,38.80
2018-08-06T09:45:48.773Z,38.90
2018-08-06T09:47:05.746Z,38.90
2018-08-06T09:48:22.920Z,38.90
2018-08-06T09:49:39.676Z,38.90
2018-08-06T09:50:56.748Z,39.00
2018-08-06T09:52:14.144Z,39.00
2018-08-06T09:53:30.992Z,39.00
2018-08-06T09:54:47.480Z,39.70
2018-08-06T09:56:04.280Z,39.10
2018-08-06T09:57:21.064Z,39.00
2018-08-06T09:58:38.345Z,39.10
2018-08-06T09:59:55.024Z,39.10
2018-08-06T10:01:17.400Z,39.20
2018-08-06T10:02:35.040Z,39.20
2018-08-06T10:05:08.146Z,39.10
2018-08-06T10:06:25.394Z,39.20
2018-08-06T10:07:41.704Z,39.20
2018-08-06T10:08:58.676Z,39.20
2018-08-06T10:10:15.528Z,39.20
2018-08-06T10:11:32.526Z,39.20
2018-08-06T10:12:49.463Z,39.30
2018-08-06T10:14:06.219Z,39.30
2018-08-06T10:15:22.916Z,39.30
2018-08-06T10:16:39.692Z,39.30
2018-08-06T10:17:56.883Z,39.30
2018-08-06T10:19:13.481Z,39.20
2018-08-06T10:20:30.349Z,39.20
2018-08-06T10:21:47.006Z,39.20
2018-08-06T10:23:03.637Z,39.30
2018-08-06T10:24:20.519Z,39.30
2018-08-06T10:25:37.837Z,39.20
2018-08-06T10:26:55.259Z,39.20
2018-08-06T10:28:12.051Z,39.20
2018-08-06T10:29:28.882Z,39.30
2018-08-06T10:30:45.783Z,39.40
2018-08-06T10:32:02.916Z,39.30
2018-08-06T10:33:19.638Z,39.40
2018-08-06T10:34:36.541Z,40.10
2018-08-06T10:35:53.405Z,39.40
2018-08-06T10:37:10.073Z,39.40
2018-08-06T10:38:27.042Z,39.40
2018-08-06T10:39:44.040Z,39.40
2018-08-06T10:41:02.713Z,39.40
2018-08-06T10:42:19.972Z,39.80
2018-08-06T10:43:36.793Z,39.50
2018-08-06T10:46:10.648Z,40.30
2018-08-06T10:47:27.363Z,40.20
2018-08-06T10:48:45.531Z,39.50
2018-08-06T10:50:02.584Z,39.50
2018-08-06T10:51:20.392Z,39.50
2018-08-06T10:52:37.288Z,39.50
2018-08-06T10:53:54.851Z,39.50
2018-08-06T10:55:13.373Z,39.50
2018-08-06T10:56:30.061Z,39.50
2018-08-06T10:57:47.261Z,39.50
2018-08-06T11:00:22.660Z,39.40
2018-08-06T11:01:39.657Z,39.50
2018-08-06T11:02:57.121Z,39.50
2018-08-06T11:04:14.076Z,39.50
2018-08-06T11:05:30.721Z,39.50
2018-08-06T11:06:47.886Z,39.50
2018-08-06T11:08:04.625Z,39.50
2018-08-06T11:09:22.251Z,39.60
2018-08-06T11:10:39.478Z,39.60
2018-08-06T11:11:56.363Z,39.60
2018-08-06T11:13:13.435Z,40.00
2018-08-06T11:14:30.764Z,39.60
2018-08-06T11:15:47.356Z,39.50
2018-08-06T11:17:04.232Z,39.60
2018-08-06T11:18:20.948Z,39.50
2018-08-06T11:19:37.896Z,39.60
2018-08-06T11:20:55.045Z,39.70
2018-08-06T11:22:12.705Z,39.60
2018-08-06T11:23:29.306Z,40.30
2018-08-06T11:24:46.756Z,39.70
2018-08-06T11:26:04.384Z,40.30
2018-08-06T11:27:21.355Z,39.70
2018-08-06T11:28:37.987Z,39.60
2018-08-06T11:29:54.635Z,39.50
2018-08-06T11:31:11.443Z,39.60
2018-08-06T11:32:28.761Z,39.70
2018-08-06T11:33:46.126Z,39.50
2018-08-06T11:35:03.010Z,39.50
2018-08-06T11:36:19.880Z,39.50
2018-08-06T11:37:36.563Z,39.50
2018-08-06T11:38:53.595Z,39.50
2018-08-06T11:40:11.728Z,39.50
2018-08-06T11:41:28.349Z,39.50
2018-08-06T11:42:45.963Z,39.70
2018-08-06T11:44:02.840Z,40.20
2018-08-06T11:45:21.588Z,39.50
2018-08-06T11:48:01.928Z,39.80
2018-08-06T11:49:19.193Z,39.70
2018-08-06T11:50:36.166Z,39.40
2018-08-06T11:51:52.885Z,39.40
2018-08-06T11:53:09.512Z,39.30
2018-08-06T11:54:26.338Z,39.40
2018-08-06T11:55:43.693Z,39.50
2018-08-06T11:57:00.404Z,39.40
2018-08-06T11:58:17.054Z,39.60
2018-08-06T11:59:34.128Z,39.40
2018-08-06T12:00:51.591Z,39.30
2018-08-06T12:02:08.320Z,39.30
2018-08-06T12:03:25.810Z,39.20
2018-08-06T12:04:42.732Z,39.30
2018-08-06T12:05:59.937Z,39.00
2018-08-06T12:07:17.208Z,38.90
2018-08-06T12:08:33.851Z,38.80
2018-08-06T12:09:51.031Z,38.80
2018-08-06T12:11:07.824Z,38.70
2018-08-06T12:12:24.573Z,39.00
2018-08-06T12:13:41.530Z,38.90
2018-08-06T12:14:58.309Z,38.70
2018-08-06T12:16:15.161Z,38.60
2018-08-06T12:17:31.856Z,38.80
2018-08-06T12:18:49.033Z,38.60
2018-08-06T12:20:09.216Z,38.60
2018-08-06T12:21:26.507Z,38.50
2018-08-06T12:22:44.959Z,38.60
2018-08-06T12:24:02.070Z,38.50
2018-08-06T12:25:19.572Z,38.40
2018-08-06T12:26:36.936Z,38.50
2018-08-06T12:27:53.845Z,38.50
2018-08-06T12:29:10.916Z,38.50
2018-08-06T12:30:27.833Z,38.50
2018-08-06T12:31:44.419Z,38.50
2018-08-06T12:33:01.406Z,38.60
2018-08-06T12:35:34.697Z,38.60
2018-08-06T12:36:52.211Z,38.50
2018-08-06T12:38:09.044Z,39.30
2018-08-06T12:39:25.832Z,38.70
2018-08-06T12:40:43.956Z,38.10
2018-08-06T12:42:01.493Z,38.70
2018-08-06T12:43:18.410Z,38.70
2018-08-06T12:44:35.144Z,38.70
2018-08-06T12:45:51.774Z,39.10
2018-08-06T12:47:08.749Z,38.60
2018-08-06T12:48:25.276Z,38.60
2018-08-06T12:49:42.168Z,38.60
2018-08-06T12:50:58.800Z,38.50
2018-08-06T12:52:15.688Z,38.50
2018-08-06T12:53:32.589Z,38.50
2018-08-06T12:54:49.548Z,38.60
2018-08-06T12:56:06.136Z,38.40
2018-08-06T12:57:23.273Z,38.40
2018-08-06T12:58:39.869Z,38.40
2018-08-06T12:59:56.689Z,38.40
2018-08-06T13:01:13.672Z,38.40
2018-08-06T13:02:31.128Z,38.30
2018-08-06T13:03:47.858Z,38.40
2018-08-06T13:05:04.987Z,38.40
2018-08-06T13:06:22.395Z,38.50
2018-08-06T13:07:39.540Z,38.60
2018-08-06T13:08:56.907Z,39.10
2018-08-06T13:10:14.248Z,39.10
2018-08-06T13:11:30.817Z,38.80
2018-08-06T13:12:47.456Z,38.70
2018-08-06T13:14:04.958Z,38.90
2018-08-06T13:15:21.972Z,38.70
2018-08-06T13:16:38.706Z,38.70
2018-08-06T13:17:55.780Z,38.90
2018-08-06T13:19:13.196Z,38.60
2018-08-06T13:20:30.460Z,38.60
2018-08-06T13:21:47.285Z,39.30
2018-08-06T13:23:04.316Z,38.60
2018-08-06T13:24:21.073Z,38.60
2018-08-06T13:25:37.884Z,38.60
2018-08-06T13:26:54.747Z,38.60
2018-08-06T13:28:12.189Z,38.60
2018-08-06T13:29:28.981Z,39.00
2018-08-06T13:30:45.623Z,38.80
2018-08-06T13:32:02.746Z,38.80
2018-08-06T13:33:19.525Z,38.90
2018-08-06T13:34:36.552Z,39.50
2018-08-06T13:35:53.602Z,38.90
2018-08-06T13:37:10.940Z,38.90
2018-08-06T13:38:28.054Z,38.90
2018-08-06T13:39:44.837Z,39.00
2018-08-06T13:41:01.836Z,38.90
2018-08-06T13:42:18.616Z,38.90
2018-08-06T13:44:51.692Z,39.50
2018-08-06T13:47:25.295Z,40.00
2018-08-06T13:48:44.893Z,39.50
2018-08-06T13:50:01.994Z,39.30
2018-08-06T13:51:18.764Z,39.40
2018-08-06T13:52:35.388Z,39.50
2018-08-06T13:53:52.311Z,39.80
2018-08-06T13:55:10.661Z,39.60
2018-08-06T13:56:27.908Z,39.70
2018-08-06T13:57:45.404Z,39.70
2018-08-06T13:59:02.436Z,39.70
2018-08-06T14:00:19.468Z,39.60
2018-08-06T14:01:36.684Z,39.60
2018-08-06T14:02:53.239Z,39.70
2018-08-06T14:04:10.567Z,39.60
2018-08-06T14:05:27.608Z,39.50
2018-08-06T14:06:44.284Z,39.60
2018-08-06T14:08:01.313Z,39.60
2018-08-06T14:09:18.113Z,39.10
2018-08-06T14:10:34.892Z,39.50
2018-08-06T14:11:51.816Z,39.60
2018-08-06T14:13:08.560Z,39.60
2018-08-06T14:14:25.121Z,39.50
2018-08-06T14:15:42.586Z,39.40
2018-08-06T14:16:59.504Z,39.40
2018-08-06T14:18:16.977Z,39.30
2018-08-06T14:19:33.748Z,39.20
2018-08-06T14:20:50.870Z,39.30
2018-08-06T14:22:07.775Z,39.20
2018-08-06T14:23:24.943Z,39.30
2018-08-06T14:24:42.089Z,39.20
2018-08-06T14:25:59.681Z,39.30
2018-08-06T14:27:16.548Z,39.20
2018-08-06T14:28:33.580Z,39.20
2018-08-06T14:29:50.272Z,39.20
2018-08-06T14:31:07.513Z,39.20
2018-08-06T14:32:24.650Z,39.30
2018-08-06T14:33:41.864Z,39.40
2018-08-06T14:34:59.040Z,39.60
2018-08-06T14:36:15.969Z,39.70
2018-08-06T14:37:33.681Z,39.70
2018-08-06T14:38:50.254Z,39.80
2018-08-06T14:40:11.569Z,40.20
2018-08-06T14:41:28.577Z,40.00
2018-08-06T14:42:45.868Z,40.10
2018-08-06T14:44:04.227Z,40.30
2018-08-06T14:45:21.133Z,40.00
2018-08-06T14:46:38.955Z,40.20
2018-08-06T14:47:55.797Z,40.30
2018-08-06T14:49:12.646Z,39.70
2018-08-06T14:50:29.188Z,40.20
2018-08-06T14:51:46.027Z,40.40
2018-08-06T14:53:02.636Z,40.10
2018-08-06T14:54:19.330Z,40.30
2018-08-06T14:55:36.301Z,40.10
2018-08-06T14:56:53.213Z,40.00
2018-08-06T14:58:09.754Z,40.60
2018-08-06T14:59:26.641Z,39.70
2018-08-06T15:00:43.250Z,39.40
2018-08-06T15:01:59.856Z,39.40
2018-08-06T15:03:16.848Z,39.10
2018-08-06T15:04:33.824Z,39.70
2018-08-06T15:05:50.720Z,39.10
2018-08-06T15:07:07.780Z,39.60
2018-08-06T15:08:24.570Z,39.40
2018-08-06T15:09:42.064Z,39.40
2018-08-06T15:10:59.132Z,39.50
2018-08-06T15:12:16.573Z,39.20
2018-08-06T15:13:33.549Z,39.10
2018-08-06T15:14:50.282Z,39.10
2018-08-06T15:16:07.457Z,39.20
2018-08-06T15:17:24.598Z,39.10
2018-08-06T15:18:41.169Z,39.10
2018-08-06T15:19:58.564Z,39.10
2018-08-06T15:21:15.415Z,39.10
2018-08-06T15:22:32.624Z,39.10
2018-08-06T15:23:49.644Z,39.10
2018-08-06T15:25:09.114Z,39.10
2018-08-06T15:26:26.532Z,39.20
2018-08-06T15:27:43.692Z,39.30
2018-08-06T15:29:00.569Z,39.30
2018-08-06T15:30:17.925Z,39.30
2018-08-06T15:31:34.610Z,39.50
2018-08-06T15:32:51.635Z,39.50
2018-08-06T15:34:08.693Z,39.50
2018-08-06T15:35:25.389Z,39.80
2018-08-06T15:36:42.713Z,39.80
2018-08-06T15:37:59.962Z,39.60
2018-08-06T15:39:16.692Z,39.70
2018-08-06T15:40:33.729Z,39.60
2018-08-06T15:41:50.668Z,39.70
2018-08-06T15:43:07.675Z,39.70
2018-08-06T15:44:24.442Z,39.60
2018-08-06T15:45:41.912Z,39.50
2018-08-06T15:46:58.748Z,39.50
2018-08-06T15:48:15.477Z,39.50
2018-08-06T15:50:49.116Z,39.50
2018-08-06T15:52:06.209Z,39.50
2018-08-06T15:53:22.915Z,39.60
2018-08-06T15:54:39.685Z,39.50
2018-08-06T15:55:56.619Z,39.60
2018-08-06T15:57:13.139Z,39.80
2018-08-06T15:58:30.084Z,39.80
2018-08-06T15:59:47.126Z,39.80
2018-08-06T16:01:03.808Z,39.60
2018-08-06T16:02:20.453Z,39.60
2018-08-06T16:03:37.074Z,39.60
2018-08-06T16:04:53.894Z,39.60
2018-08-06T16:06:10.869Z,39.60
2018-08-06T16:07:27.664Z,39.60
2018-08-06T16:08:44.592Z,39.40
2018-08-06T16:10:01.677Z,40.00
2018-08-06T16:11:18.528Z,39.50
2018-08-06T16:12:35.088Z,39.50
2018-08-06T16:13:51.872Z,39.30
2018-08-06T16:15:10.568Z,39.60
2018-08-06T16:16:27.876Z,39.40
2018-08-06T16:17:45.496Z,39.20
2018-08-06T16:19:03.145Z,39.10
2018-08-06T16:20:19.844Z,39.00
2018-08-06T16:21:36.737Z,39.40
2018-08-06T16:22:53.562Z,39.20
2018-08-06T16:24:10.401Z,39.30
2018-08-06T16:25:27.038Z,39.30
2018-08-06T16:26:44.274Z,39.00
2018-08-06T16:28:02.169Z,38.80
2018-08-06T16:29:19.468Z,39.10
2018-08-06T16:30:36.454Z,39.50
2018-08-06T16:31:53.483Z,39.10
2018-08-06T16:33:10.725Z,39.20
2018-08-06T16:34:27.775Z,39.10
2018-08-06T16:35:44.657Z,39.10
2018-08-06T16:37:01.867Z,39.10
2018-08-06T16:38:19.105Z,39.20
2018-08-06T16:39:36.061Z,39.10
2018-08-06T16:40:53.413Z,39.10
2018-08-06T16:42:10.281Z,38.80
2018-08-06T16:43:27.348Z,39.00
2018-08-06T16:44:44.284Z,38.90
2018-08-06T16:46:01.749Z,38.90
2018-08-06T16:47:18.612Z,39.70
2018-08-06T16:48:35.764Z,38.70
2018-08-06T16:51:09.304Z,38.70
2018-08-06T16:52:26.633Z,38.90
2018-08-06T16:53:43.288Z,38.70